Latest Weather Observations for Maatsuyker Island

IDT60801

Issued at 2:05 pm EDT Wednesday 22 October 2014 (issued every 30 minutes, with the page automatically refreshed every 10 minutes)

About weather observations | Map of weather stations | Latest weather observations for TAS | Other Formats
Station Details ID: 094041 Name: MAATSUYKER ISLAND LIGHTHOUSE Lat: -43.66 Lon: 146.27 Height: 146.5 m
Data from the previous 72 hours. | See also: Recent months at Maatsuyker Island
Date/Time
EDT
Temp
°C
App
Temp
°C
Dew
Point
Rel
Hum
%
Delta-T
°C
Wind Press
QNH
hPa
Press
MSL
hPa
Rain
since 9 am
mm
Dir
 
Spd
km/h
Gust
km/h
Spd
kts
Gust
kts
22/02:00pm 15.0 10.1 6.9 58 4.0 WNW 22 32 12 17 1015.9 - 0.0
22/01:30pm 15.9 11.6 5.3 49 5.1 W 17 20 9 11 1015.5 - 0.0
22/01:00pm 16.5 12.6 3.3 41 6.1 WNW 13 19 7 10 1015.3 - 0.0
22/12:30pm 16.8 15.2 8.2 57 4.4 W 6 13 3 7 1015.4 - 0.0
22/12:00pm 17.3 14.9 5.3 45 5.8 NNE 7 11 4 6 1015.7 1016.0 0.0
22/11:30am 14.7 12.4 7.5 62 3.6 E 9 13 5 7 1016.2 - 0.0
22/11:00am 14.3 12.6 7.7 64 3.3 NE 6 9 3 5 1016.6 - 0.0
22/10:30am 14.5 13.0 8.6 67 3.0 E 6 9 3 5 1016.9 - 0.0
22/10:00am 13.8 12.3 9.1 73 2.4 E 7 11 4 6 1017.2 - 0.0
22/09:30am 13.4 13.4 9.7 78 1.9 CALM 0 6 0 3 1017.4 - 0.0
22/09:00am 13.5 13.0 9.4 76 2.1 N 2 6 1 3 1017.3 1017.5 0.0
22/08:30am 12.5 11.9 7.6 72 2.4 CALM 0 0 0 0 1017.7 - 0.0
22/08:00am 11.4 8.6 6.8 73 2.2 N 11 15 6 8 1018.1 - 0.0
22/07:30am 11.0 7.7 6.3 73 2.2 N 13 17 7 9 1018.1 - 0.0
22/07:00am 11.2 7.5 6.1 71 2.4 N 15 17 8 9 1018.4 - 0.0
22/06:30am 10.9 6.2 6.2 73 2.2 N 20 22 11 12 1018.6 - 0.0
22/06:00am 11.0 5.7 6.6 74 2.1 N 24 24 13 13 1018.6 1018.7 0.0
22/05:30am 11.2 5.7 7.7 79 1.7 N 26 30 14 16 1018.8 - 0.0
22/05:00am 11.5 5.9 7.1 74 2.1 NNW 26 28 14 15 1018.8 - 0.0
22/04:30am 11.4 5.6 7.9 79 1.7 N 28 32 15 17 1019.2 - 0.0
22/04:00am 11.9 6.7 7.4 74 2.2 N 24 32 13 17 1019.6 - 0.0
22/03:30am 11.6 6.2 7.9 78 1.8 N 26 28 14 15 1019.8 - 0.0
22/03:00am 12.1 7.9 8.3 77 1.9 N 20 24 11 13 1020.5 1020.6 0.0
22/02:30am 12.4 8.0 7.3 71 2.5 NW 20 26 11 14 1021.0 - 0.0
22/02:00am 11.9 7.8 7.8 76 2.0 N 19 26 10 14 1021.4 - 0.0
22/01:30am 12.5 9.0 7.1 69 2.6 N 15 19 8 10 1021.6 - 0.0
22/01:00am 14.3 9.8 6.2 58 3.9 NNE 19 24 10 13 1021.9 - 0.0
22/12:30am 13.1 9.1 6.7 65 3.1 N 17 17 9 9 1022.5 - 0.0
22/12:00am 12.1 7.7 6.7 69 2.6 N 19 22 10 12 1022.9 1023.1 0.0
 
Date/Time
EDT
Temp
°C
App
Temp
°C
Dew
Point
Rel
Hum
%
Delta-T
°C
Wind Press
QNH
hPa
Press
MSL
hPa
Rain
since 9 am
mm
Dir
 
Spd
km/h
Gust
km/h
Spd
kts
Gust
kts
21/11:30pm 11.4 7.0 6.5 72 2.3 N 19 22 10 12 1023.3 - 0.0
21/11:00pm 10.9 7.1 9.7 92 0.6 N 20 22 11 12 1023.9 - 0.0
21/10:30pm 11.5 9.6 9.1 85 1.2 N 9 15 5 8 1024.3 - 0.0
21/10:00pm 11.4 9.9 9.2 86 1.1 E 7 9 4 5 1024.7 - 0.0
21/09:30pm 11.8 10.4 9.4 85 1.2 NW 7 11 4 6 1025.0 - 0.0
21/09:00pm 11.7 10.0 8.5 81 1.6 NW 7 13 4 7 1025.4 1025.6 0.0
21/08:30pm 11.6 9.7 9.0 84 1.3 N 9 17 5 9 1025.3 - 0.0
21/08:00pm 11.8 10.5 9.2 84 1.3 N 6 9 3 5 1025.8 - 0.0
21/07:30pm 12.7 11.2 9.3 80 1.7 N 7 11 4 6 1026.0 - 0.0
21/07:00pm 13.3 12.1 9.4 77 2.0 NNW 6 7 3 4 1026.2 - 0.0
21/06:30pm 13.5 12.1 9.0 74 2.3 NNW 6 9 3 5 1026.5 - 0.0
21/06:00pm 13.5 12.3 9.4 76 2.1 N 6 11 3 6 1026.9 1027.1 0.0
21/05:30pm 14.5 12.6 9.2 70 2.7 N 9 17 5 9 1027.3 - 0.0
21/05:00pm 14.5 12.4 8.3 66 3.1 NNE 9 15 5 8 1027.8 - 0.0
21/04:30pm 14.3 11.8 8.3 67 3.0 NNE 11 20 6 11 1028.1 - 0.0
21/04:00pm 14.7 12.1 7.9 63 3.4 NE 11 17 6 9 1028.3 - 0.0
21/03:30pm 13.5 10.1 7.8 68 2.8 ESE 15 32 8 17 1028.7 - 0.0
21/03:00pm 14.1 11.8 7.4 64 3.3 NE 9 17 5 9 1028.9 1029.2 0.0
21/02:30pm 13.3 11.0 7.4 67 2.9 ENE 9 15 5 8 1029.3 - 0.0
21/02:00pm 13.5 8.7 7.4 66 3.0 SE 22 32 12 17 1030.0 - 0.0
21/01:30pm 12.9 10.4 6.4 64 3.1 ENE 9 15 5 8 1030.3 - 0.0
21/01:00pm 14.0 11.9 6.5 60 3.6 N 7 11 4 6 1030.4 - 0.0
21/12:30pm 13.4 11.3 5.8 60 3.6 N 6 7 3 4 1030.7 - 0.0
21/12:00pm 12.6 10.5 5.8 63 3.2 NNE 6 11 3 6 1031.1 1031.2 0.0
21/11:30am 12.1 9.1 5.9 66 2.9 SE 11 15 6 8 1031.6 - 0.0
21/11:00am 11.9 10.1 5.4 64 3.0 W 4 7 2 4 1031.9 - 0.0
21/10:30am 11.8 9.4 4.5 61 3.3 WNW 6 9 3 5 1032.0 - 0.0
21/10:00am 11.0 8.4 4.3 63 3.0 WNW 7 9 4 5 1032.2 - 0.0
21/09:30am 10.5 7.9 4.2 65 2.8 NNW 7 11 4 6 1032.5 - 0.0
21/09:00am 9.5 7.1 5.3 75 1.9 N 7 11 4 6 1032.6 1032.8 0.0
21/08:30am 8.6 5.8 5.0 78 1.6 N 9 13 5 7 1032.7 - 0.0
21/08:00am 7.9 4.7 5.2 83 1.2 N 11 13 6 7 1032.7 - 0.0
21/07:30am 7.9 3.9 5.0 82 1.3 N 15 20 8 11 1032.6 - 0.0
21/07:00am 7.8 3.8 4.8 81 1.3 N 15 19 8 10 1032.4 - 0.0
21/06:30am 7.6 3.2 4.9 83 1.2 N 17 20 9 11 1032.3 - 0.0
21/06:00am 7.7 4.0 4.5 80 1.4 N 13 22 7 12 1032.0 1032.2 0.0
21/05:30am 7.2 3.6 5.2 87 0.9 N 13 17 7 9 1032.0 - 0.0
21/05:00am 7.4 3.4 4.7 83 1.2 N 15 19 8 10 1031.8 - 0.0
21/04:30am 7.3 3.2 4.3 81 1.3 N 15 19 8 10 1031.8 - 0.0
21/04:00am 7.6 3.9 4.6 81 1.3 N 13 17 7 9 1032.0 - 0.0
21/03:30am 7.6 3.6 4.9 83 1.2 N 15 19 8 10 1032.0 - 0.0
21/03:00am 7.6 3.5 4.4 80 1.4 N 15 17 8 9 1032.1 1032.3 0.0
21/02:30am 8.0 5.5 3.6 74 1.9 NNE 6 7 3 4 1032.2 - 0.0
21/02:00am 8.3 4.5 3.9 74 1.9 ENE 13 19 7 10 1032.2 - 0.0
21/01:30am 7.9 5.3 3.4 73 1.9 NW 6 9 3 5 1032.4 - 0.0
21/01:00am 7.9 5.1 2.9 70 2.1 NNW 7 13 4 7 1032.9 - 0.0
21/12:30am 7.7 4.7 2.1 67 2.3 WNW 7 15 4 8 1032.8 - 0.0
21/12:00am 7.7 4.2 1.5 65 2.5 NNW 9 15 5 8 1033.1 1033.2 0.0
 
Date/Time
EDT
Temp
°C
App
Temp
°C
Dew
Point
Rel
Hum
%
Delta-T
°C
Wind Press
QNH
hPa
Press
MSL
hPa
Rain
since 9 am
mm
Dir
 
Spd
km/h
Gust
km/h
Spd
kts
Gust
kts
20/11:30pm 7.5 4.4 1.6 66 2.4 WNW 7 13 4 7 1033.3 - 0.0
20/11:00pm 7.4 4.3 1.2 65 2.5 NW 7 15 4 8 1033.6 - 0.0
20/10:30pm 7.3 4.7 1.0 64 2.5 NNE 4 9 2 5 1033.9 - 0.0
20/10:00pm 7.4 5.6 0.9 63 2.6 CALM 0 4 0 2 1034.5 - 0.0
20/09:30pm 7.4 4.7 0.6 62 2.7 NE 4 9 2 5 1034.5 - 0.0
20/09:00pm 7.2 4.9 0.6 63 2.6 SE 2 11 1 6 1034.7 1034.8 0.0
20/08:30pm 7.7 3.0 0.7 61 2.8 S 15 19 8 10 1034.3 - 0.0
20/08:00pm 7.8 3.1 0.8 61 2.8 SSW 15 20 8 11 1034.2 - 0.0
20/07:30pm 8.5 4.5 0.8 58 3.1 SW 11 17 6 9 1034.2 - 0.0
20/07:00pm 9.1 4.4 0.7 55 3.4 SSW 15 20 8 11 1034.0 - 0.0
20/06:30pm 9.7 4.6 0.6 53 3.7 SSW 17 24 9 13 1034.0 - 0.0
20/06:00pm 10.6 6.0 1.8 54 3.7 W 15 24 8 13 1034.1 1034.3 0.0
20/05:30pm 11.2 6.0 2.3 54 3.8 W 19 24 10 13 1034.2 - 0.0
20/05:00pm 11.2 6.3 2.0 53 4.0 W 17 22 9 12 1034.1 - 0.0
20/04:30pm 10.8 6.0 2.4 56 3.6 W 17 22 9 12 1033.9 - 0.0
20/04:00pm 10.7 5.8 1.9 54 3.8 W 17 22 9 12 1034.0 - 0.0
20/03:30pm 11.6 6.2 2.3 53 4.0 W 20 28 11 15 1034.1 - 0.0
20/03:00pm 11.0 6.8 1.8 53 3.9 SW 13 26 7 14 1034.0 1034.2 0.0
20/02:30pm 11.4 6.7 2.9 56 3.7 W 17 22 9 12 1034.1 - 0.0
20/02:00pm 10.7 5.7 1.3 52 4.0 W 17 24 9 13 1034.2 - 0.0
20/01:30pm 10.6 5.2 1.2 52 3.9 W 19 24 10 13 1034.4 - 0.0
20/01:00pm 10.7 5.0 0.4 49 4.2 W 20 28 11 15 1034.6 - 0.0
20/12:30pm 10.3 4.6 0.8 51 3.9 W 20 26 11 14 1034.7 - 0.0
20/12:00pm 9.3 3.9 1.5 58 3.2 W 19 24 10 13 1034.8 1035.0 0.0
20/11:30am 8.6 3.3 2.1 63 2.7 WNW 19 24 10 13 1034.7 - 0.0
20/11:00am 9.4 5.2 1.4 57 3.3 NW 13 19 7 10 1034.4 - 0.0
20/10:30am 8.6 3.8 2.4 65 2.6 W 17 24 9 13 1034.3 - 0.0
20/10:00am 8.9 3.7 2.2 63 2.8 WSW 19 24 10 13 1033.9 - 0.0
20/09:30am 9.2 4.9 0.8 55 3.4 WSW 13 19 7 10 1033.8 - 0.0
20/09:00am 8.3 4.2 -0.4 54 3.4 SW 11 20 6 11 1033.4 1033.6 2.4
20/08:30am 8.3 3.5 0.2 56 3.2 SW 15 22 8 12 1033.1 - 2.4
20/08:00am 7.4 2.5 -0.4 57 3.0 SSW 15 32 8 17 1032.7 - 2.4
20/07:30am 7.4 2.0 1.2 65 2.5 S 19 24 10 13 1032.2 - 2.4
20/07:00am 7.2 3.1 -0.3 59 2.9 S 11 22 6 12 1031.7 - 2.4
20/06:30am 7.0 -0.1 -1.2 56 3.1 S 26 32 14 17 1031.5 - 2.4
20/06:00am 7.4 2.5 -0.3 58 3.0 SW 15 30 8 16 1031.1 1031.1 2.4
20/05:30am 7.3 0.2 -1.1 55 3.2 SSW 26 37 14 20 1030.8 - 2.4
20/05:00am 7.3 0.9 -1.8 52 3.4 SW 22 33 12 18 1030.3 - 2.4
20/04:30am 7.0 0.0 -3.3 48 3.7 SW 24 32 13 17 1029.9 - 2.4
20/04:00am 7.1 0.4 -1.1 56 3.1 SW 24 32 13 17 1029.8 - 2.4
20/03:30am 7.3 0.7 -0.5 57 3.0 WSW 24 35 13 19 1029.5 - 2.4
20/03:07am 7.5 -0.1 0.4 61 2.8 SSW 30 48 16 26 1029.3 - 2.4
20/03:00am 7.4 -0.2 -2.0 51 3.5 SSW 28 37 15 20 1029.3 1029.4 2.4
20/02:30am 7.1 -0.5 -2.4 51 3.5 SSW 28 39 15 21 1029.2 - 2.4
20/02:00am 7.2 -1.5 -3.0 48 3.7 SSW 33 43 18 23 1029.0 - 2.4
20/01:48am 7.1 -0.6 -3.2 48 3.7 SW 28 46 15 25 1028.9 - 2.4
20/01:30am 7.1 -2.8 -3.9 45 3.9 SSW 39 44 21 24 1028.6 - 2.4
20/01:00am 7.3 -1.5 -1.5 53 3.3 SSW 35 44 19 24 1028.4 - 2.4
20/12:30am 7.2 -1.8 -3.0 48 3.7 SSW 35 50 19 27 1028.2 - 2.4
20/12:00am 7.4 -0.4 -1.0 55 3.2 SSW 30 48 16 26 1027.9 1027.9 2.4
 
Date/Time
EDT
Temp
°C
App
Temp
°C
Dew
Point
Rel
Hum
%
Delta-T
°C
Wind Press
QNH
hPa
Press
MSL
hPa
Rain
since 9 am
mm
Dir
 
Spd
km/h
Gust
km/h
Spd
kts
Gust
kts
19/11:58pm 7.4 -0.4 -1.0 55 3.2 SSW 30 48 16 26 1027.7 - 2.4
19/11:30pm 7.0 -1.5 -1.5 54 3.2 SSW 33 46 18 25 1027.4 - 2.4
19/11:00pm 7.0 -1.5 -1.9 53 3.3 SW 33 43 18 23 1027.0 - 2.4
19/10:30pm 7.1 -1.5 -0.1 60 2.8 SSW 35 54 19 29 1026.6 - 2.4
19/10:00pm 7.2 -1.9 -0.6 57 3.0 SSW 37 50 20 27 1026.2 - 2.4
19/09:43pm 7.2 -2.7 -0.9 56 3.1 SW 41 59 22 32 1025.8 - 2.4
19/09:30pm 7.1 -3.3 -0.4 59 2.9 SSW 44 57 24 31 1025.4 - 2.4
19/09:14pm 7.0 -1.4 1.3 67 2.3 SSW 35 59 19 32 1025.3 - 2.4
19/09:00pm 7.2 -5.1 2.9 74 1.8 SSW 57 67 31 36 1024.6 1024.7 2.4
19/08:52pm 7.7 -3.5 2.1 67 2.3 SSW 50 61 27 33 1024.5 - 2.4
19/08:48pm 7.9 -0.9 -0.9 54 3.4 W 35 54 19 29 1024.6 - 2.4
19/08:30pm 7.9 -1.4 -2.3 48 3.8 WSW 37 54 20 29 1024.0 - 2.4
19/08:00pm 7.9 -1.1 0.4 59 3.0 WSW 37 56 20 30 1022.9 - 2.4
19/07:55pm 7.6 0.5 1.2 64 2.6 W 28 46 15 25 1022.8 - 2.4
19/07:42pm 6.8 -1.7 0.8 65 2.4 W 35 69 19 37 1022.5 - 2.4
19/07:39pm 6.6 -4.7 1.4 69 2.1 SW 50 69 27 37 1022.6 - 2.4
19/07:37pm 6.7 -5.3 1.5 69 2.1 SSW 54 69 29 37 1022.4 - 2.4
19/07:33pm 8.2 -0.9 -0.8 53 3.5 W 37 56 20 30 1022.4 - 2.4
19/07:30pm 8.1 -1.1 -1.0 52 3.5 W 37 52 20 28 1022.2 - 2.4
19/07:14pm 8.5 -0.2 -0.7 52 3.6 W 35 54 19 29 1021.9 - 2.4
19/07:00pm 8.5 -1.9 -1.7 48 3.9 WSW 43 57 23 31 1021.5 - 2.4
19/06:30pm 7.9 -2.1 0.7 60 2.9 WSW 43 69 23 37 1021.0 - 2.4
19/06:20pm 8.1 -1.1 1.2 62 2.8 W 39 57 21 31 1021.0 - 2.4
19/06:00pm 8.1 0.4 2.1 66 2.5 W 32 44 17 24 1020.3 1020.4 2.4
19/05:30pm 8.0 -0.4 3.9 75 1.8 WSW 37 56 20 30 1019.6 - 2.4
19/05:20pm 8.1 0.0 3.5 73 2.0 W 35 54 19 29 1019.3 - 2.4
19/05:00pm 8.1 0.5 4.0 75 1.8 W 33 46 18 25 1019.3 - 2.4
19/04:30pm 7.6 -0.5 5.4 86 1.0 WSW 37 50 20 27 1018.8 - 2.4
19/04:15pm 7.3 -1.9 5.5 88 0.8 W 43 65 23 35 1018.5 - 2.4
19/04:06pm 7.9 -2.0 5.0 82 1.3 WNW 46 65 25 35 1018.5 - 2.2
19/04:00pm 8.3 -1.6 4.9 79 1.5 WNW 46 56 25 30 1018.2 - 2.2
19/03:30pm 8.1 0.1 5.7 85 1.1 W 37 44 20 24 1018.2 - 2.2
19/03:00pm 8.4 -0.6 6.2 86 1.0 W 43 56 23 30 1017.5 1017.7 2.2
19/02:30pm 8.3 -1.3 6.4 88 0.9 WNW 46 57 25 31 1017.7 - 2.0

Other Formats:

Comma delimited format used in spreadsheet applications
http://www.bom.gov.au/fwo/IDT60801/IDT60801.94962.axf

JavaScript Object Notation format (JSON) in row-major order
http://www.bom.gov.au/fwo/IDT60801/IDT60801.94962.json